Terminal Aerodrome Forecast
Issued by NWS

Home | Current Version | Previous Version | Text Only | Print | Product List | Glossary On
Versions: 1 2 3 4 5 6 7 8 9 10 11 12 13 14 15 16 17 18 19
000
FTUS43 KMQT 261700
TAFSAW
TAF
KSAW 261738Z 2618/2718 VRB03KT P6SM BKN060
     FM262300 VRB03KT P6SM -SHSN BKN040
     FM270300 35014G22KT 1SM -SHSN BLSN OVC010
      TEMPO 2703/2706 3/4SM -SHSN BLSN OVC007
     FM271000 34014G19KT 3SM -SHSN OVC015
     FM271300 34013KT P6SM -SHSN BKN025
      AMD LTD TO CLD VIS AND WIND 2703/2711=

USA.gov is the U.S. government's official web portal to all federal, state and local government web resources and services.